< < Back
Terminal Aerodrome Forecast


Current Version              Previous Versions:   1  2  3  4  5  6  7  8  9  

Terminal Aerodrome Forecast

586
FTUS42 KGSP 261444 AAA
TAFCLT
TAF AMD
KCLT 261444Z 2615/2712 30005KT P6SM BKN060
     FM261800 32009G17KT P6SM BKN060
     FM270000 32011G19KT P6SM SCT090
     FM270400 33007KT P6SM SCT250=

Latest METAR

369
SAUS70 KWBC 270800
MTRCLT
METAR KCLT 270752Z 31005KT 10SM CLR 00/M06 A2978 RMK AO2 SLP085
T00001061


USA.gov is the U.S. government's official web portal to all federal, state and local government web resources and services.